createdAt,value
2023-03-14T00:01:34.996Z,12.14
2023-03-14T00:04:02.968Z,11.99
2023-03-14T00:06:32.270Z,12.20
2023-03-14T00:09:00.250Z,11.99
2023-03-14T00:11:28.309Z,11.92
2023-03-14T00:13:56.260Z,12.07
2023-03-14T00:16:25.538Z,11.83
2023-03-14T00:18:53.820Z,11.70
2023-03-14T00:21:21.837Z,11.90
2023-03-14T00:23:51.937Z,11.85
2023-03-14T00:26:23.469Z,11.77
2023-03-14T00:28:54.867Z,11.74
2023-03-14T00:31:23.394Z,11.68
2023-03-14T00:33:54.177Z,11.66
2023-03-14T00:36:23.288Z,11.58
2023-03-14T00:38:52.807Z,11.66
2023-03-14T00:41:24.203Z,11.65
2023-03-14T00:43:54.028Z,11.67
2023-03-14T00:46:21.999Z,11.51
2023-03-14T00:48:50.118Z,11.42
2023-03-14T00:51:19.714Z,11.47
2023-03-14T00:53:50.244Z,11.47
2023-03-14T00:56:18.227Z,11.57
2023-03-14T00:58:46.601Z,11.59
2023-03-14T01:01:16.900Z,11.53
2023-03-14T01:03:44.881Z,11.46
2023-03-14T01:06:15.866Z,11.35
2023-03-14T01:08:46.240Z,11.51
2023-03-14T01:11:16.595Z,11.41
2023-03-14T01:13:44.889Z,11.41
2023-03-14T01:16:14.549Z,11.32
2023-03-14T01:18:45.190Z,11.28
2023-03-14T01:21:15.481Z,11.26
2023-03-14T01:23:45.090Z,11.24
2023-03-14T01:26:14.498Z,11.26
2023-03-14T01:28:42.834Z,11.31
2023-03-14T01:31:12.803Z,11.26
2023-03-14T01:33:41.979Z,11.39
2023-03-14T01:36:12.452Z,11.26
2023-03-14T01:38:41.666Z,11.34
2023-03-14T01:41:17.534Z,11.32
2023-03-14T01:43:46.508Z,11.40
2023-03-14T01:46:27.726Z,11.34
2023-03-14T01:49:00.647Z,11.38
2023-03-14T01:51:36.028Z,11.20
2023-03-14T01:54:12.022Z,11.36
2023-03-14T01:56:44.378Z,11.22
2023-03-14T01:59:13.276Z,11.22
2023-03-14T02:01:44.821Z,11.28
2023-03-14T02:04:13.749Z,11.27
2023-03-14T02:06:51.895Z,11.29
2023-03-14T02:09:22.860Z,11.09
2023-03-14T02:11:53.499Z,11.15
2023-03-14T02:14:43.275Z,11.14
2023-03-14T02:17:33.823Z,11.15
2023-03-14T02:20:30.034Z,11.14
2023-03-14T02:23:02.921Z,11.05
2023-03-14T02:25:41.640Z,11.04
2023-03-14T02:28:11.280Z,10.92
2023-03-14T02:30:40.869Z,10.90
2023-03-14T02:33:10.803Z,10.88
2023-03-14T02:35:41.942Z,11.07
2023-03-14T02:38:17.995Z,11.04
2023-03-14T02:40:47.144Z,11.03
2023-03-14T02:43:16.747Z,11.05
2023-03-14T02:45:51.878Z,10.97
2023-03-14T02:48:26.461Z,11.08
2023-03-14T02:50:56.719Z,10.98
2023-03-14T02:53:27.690Z,11.03
2023-03-14T02:55:57.932Z,11.06
2023-03-14T02:58:28.791Z,11.05
2023-03-14T03:01:03.354Z,11.02
2023-03-14T03:03:31.305Z,11.04
2023-03-14T03:05:59.449Z,10.94
2023-03-14T03:08:28.719Z,10.92
2023-03-14T03:10:59.600Z,10.79
2023-03-14T03:13:31.234Z,10.95
2023-03-14T03:16:00.528Z,10.88
2023-03-14T03:18:28.402Z,10.83
2023-03-14T03:20:56.351Z,11.00
2023-03-14T03:23:24.268Z,10.81
2023-03-14T03:25:53.093Z,10.88
2023-03-14T03:28:21.854Z,10.78
2023-03-14T03:30:52.314Z,10.78
2023-03-14T03:33:20.355Z,10.82
2023-03-14T03:35:49.694Z,10.83
2023-03-14T03:38:22.842Z,10.87
2023-03-14T03:40:54.098Z,10.82
2023-03-14T03:43:25.763Z,10.79
2023-03-14T03:45:55.616Z,10.89
2023-03-14T03:48:25.241Z,10.78
2023-03-14T03:50:53.258Z,10.84
2023-03-14T03:53:33.209Z,10.71
2023-03-14T03:56:05.907Z,10.77
2023-03-14T03:58:35.129Z,10.79
2023-03-14T04:01:06.895Z,10.75
2023-03-14T04:03:35.366Z,10.74
2023-03-14T04:06:04.848Z,10.84
2023-03-14T04:08:34.782Z,10.73
2023-03-14T04:11:04.170Z,10.74
2023-03-14T04:13:56.445Z,10.76
2023-03-14T04:16:27.332Z,10.69
2023-03-14T04:19:03.040Z,10.70
2023-03-14T04:21:32.738Z,10.75
2023-03-14T04:24:00.801Z,10.70
2023-03-14T04:26:32.635Z,10.70
2023-03-14T04:29:00.708Z,10.61
2023-03-14T04:31:30.143Z,10.66
2023-03-14T04:33:58.163Z,10.67
2023-03-14T04:36:33.604Z,10.62
2023-03-14T04:39:06.047Z,10.57
2023-03-14T04:41:36.574Z,10.68
2023-03-14T04:44:04.855Z,10.57
2023-03-14T04:46:34.294Z,10.54
2023-03-14T04:49:04.295Z,10.58
2023-03-14T04:51:32.590Z,10.69
2023-03-14T04:54:00.466Z,10.57
2023-03-14T04:56:28.759Z,10.59
2023-03-14T04:58:57.003Z,10.54
2023-03-14T05:01:25.227Z,10.59
2023-03-14T05:04:23.657Z,10.57
2023-03-14T05:07:02.602Z,10.53
2023-03-14T05:09:49.169Z,10.53
2023-03-14T05:12:40.301Z,10.62
2023-03-14T05:15:23.103Z,10.54
2023-03-14T05:18:16.317Z,10.62
2023-03-14T05:21:07.112Z,10.60
2023-03-14T05:23:53.663Z,10.55
2023-03-14T05:26:44.678Z,10.50
2023-03-14T05:29:35.557Z,10.62
2023-03-14T05:32:22.113Z,10.55
2023-03-14T05:35:04.243Z,10.53
2023-03-14T05:37:53.831Z,10.68
2023-03-14T05:40:21.779Z,10.61
2023-03-14T05:43:05.841Z,10.56
2023-03-14T05:45:37.193Z,10.68
2023-03-14T05:48:25.160Z,10.63
2023-03-14T05:51:11.737Z,10.66
2023-03-14T05:53:56.136Z,10.69
2023-03-14T05:56:48.376Z,10.77
2023-03-14T05:59:27.504Z,10.79
2023-03-14T06:02:15.836Z,10.79
2023-03-14T06:04:54.406Z,10.78
2023-03-14T06:07:22.340Z,10.81
2023-03-14T06:09:53.216Z,10.82
2023-03-14T06:12:21.310Z,10.79
2023-03-14T06:14:49.413Z,10.77
2023-03-14T06:17:17.489Z,10.83
2023-03-14T06:19:52.875Z,10.91
2023-03-14T06:22:21.411Z,10.82
2023-03-14T06:24:51.366Z,10.92
2023-03-14T06:27:23.413Z,10.95
2023-03-14T06:29:56.758Z,11.02
2023-03-14T06:32:26.751Z,10.99
2023-03-14T06:35:02.167Z,10.98
2023-03-14T06:37:34.727Z,11.07
2023-03-14T06:40:06.439Z,11.12
2023-03-14T06:42:56.610Z,11.10
2023-03-14T06:45:25.980Z,11.13
2023-03-14T06:47:55.442Z,11.27
2023-03-14T06:50:28.372Z,11.17
2023-03-14T06:53:01.662Z,11.16
2023-03-14T06:55:31.514Z,11.22
2023-03-14T06:57:59.492Z,11.26
2023-03-14T07:00:28.291Z,11.30
2023-03-14T07:02:57.657Z,11.36
2023-03-14T07:05:30.962Z,11.35
2023-03-14T07:07:59.400Z,11.37
2023-03-14T07:10:28.830Z,11.45
2023-03-14T07:12:58.298Z,11.46
2023-03-14T07:15:29.108Z,11.44
2023-03-14T07:18:01.572Z,11.38
2023-03-14T07:20:30.678Z,11.41
2023-03-14T07:23:00.685Z,11.28
2023-03-14T07:25:55.091Z,11.30
2023-03-14T07:28:37.889Z,11.30
2023-03-14T07:31:10.997Z,11.41
2023-03-14T07:33:40.449Z,11.42
2023-03-14T07:36:09.964Z,11.34
2023-03-14T07:38:42.342Z,11.43
2023-03-14T07:41:25.435Z,11.43
2023-03-14T07:44:17.633Z,11.37
2023-03-14T07:46:45.865Z,11.41
2023-03-14T07:49:13.874Z,11.35
2023-03-14T07:51:41.934Z,11.44
2023-03-14T07:54:10.009Z,11.32
2023-03-14T07:56:38.097Z,11.38
2023-03-14T07:59:15.261Z,11.38
2023-03-14T08:01:44.673Z,11.38
2023-03-14T08:04:12.895Z,11.47
2023-03-14T08:06:42.702Z,11.49
2023-03-14T08:09:10.896Z,11.49
2023-03-14T08:11:39.040Z,11.56
2023-03-14T08:14:07.104Z,11.61
2023-03-14T08:16:35.261Z,11.66
2023-03-14T08:19:07.401Z,11.72
2023-03-14T08:21:38.537Z,11.84
2023-03-14T08:24:15.254Z,11.82
2023-03-14T08:26:48.082Z,11.79
2023-03-14T08:29:16.165Z,11.79
2023-03-14T08:31:45.375Z,11.86
2023-03-14T08:34:14.723Z,11.91
2023-03-14T08:36:42.969Z,11.89
2023-03-14T08:39:11.223Z,12.05
2023-03-14T08:41:42.181Z,12.02
2023-03-14T08:44:11.190Z,11.93
2023-03-14T08:46:39.654Z,11.89
2023-03-14T08:49:10.173Z,11.97
2023-03-14T08:51:39.682Z,11.98
2023-03-14T08:54:07.675Z,12.03
2023-03-14T08:56:35.789Z,12.11
2023-03-14T08:59:03.846Z,11.96
2023-03-14T09:01:31.790Z,12.01
2023-03-14T09:03:59.870Z,12.03
2023-03-14T09:06:38.997Z,12.09
2023-03-14T09:09:08.587Z,12.06
2023-03-14T09:11:36.983Z,12.17
2023-03-14T09:14:06.637Z,12.17
2023-03-14T09:16:35.400Z,12.35
2023-03-14T09:19:03.445Z,12.35
2023-03-14T09:21:31.487Z,12.52
2023-03-14T09:24:02.530Z,12.51
2023-03-14T09:26:32.430Z,12.56
2023-03-14T09:29:00.555Z,12.49
2023-03-14T09:31:29.624Z,12.52
2023-03-14T09:33:57.815Z,12.58
2023-03-14T09:36:25.993Z,12.66
2023-03-14T09:38:56.491Z,12.80
2023-03-14T09:41:28.432Z,12.78
2023-03-14T09:44:04.757Z,12.92
2023-03-14T09:46:42.652Z,13.08
2023-03-14T09:49:18.493Z,13.24
2023-03-14T09:51:48.145Z,13.17
2023-03-14T09:54:29.103Z,13.05
2023-03-14T09:56:57.036Z,12.90
2023-03-14T09:59:28.002Z,12.98
2023-03-14T10:01:59.381Z,12.97
2023-03-14T10:04:28.538Z,12.91
2023-03-14T10:06:56.734Z,13.00
2023-03-14T10:09:26.436Z,12.94
2023-03-14T10:12:08.987Z,12.88
2023-03-14T10:14:40.084Z,12.90
2023-03-14T10:17:13.546Z,12.87
2023-03-14T10:19:54.581Z,13.01
2023-03-14T10:22:25.398Z,13.06
2023-03-14T10:24:55.458Z,13.09
2023-03-14T10:27:25.280Z,13.10
2023-03-14T10:29:59.612Z,13.08
2023-03-14T10:32:35.555Z,13.03
2023-03-14T10:35:11.005Z,13.07
2023-03-14T10:37:51.969Z,13.06
2023-03-14T10:40:22.943Z,13.07
2023-03-14T10:42:52.985Z,12.99
2023-03-14T10:45:33.919Z,13.05
2023-03-14T10:48:19.589Z,12.99
2023-03-14T10:50:55.128Z,12.93
2023-03-14T10:53:25.036Z,12.99
2023-03-14T10:55:54.899Z,12.95
2023-03-14T10:58:25.293Z,12.94
2023-03-14T11:01:08.129Z,12.98
2023-03-14T11:03:38.546Z,12.96
2023-03-14T11:06:13.830Z,12.96
2023-03-14T11:08:52.172Z,13.04
2023-03-14T11:11:24.353Z,13.09
2023-03-14T11:14:09.287Z,13.10
2023-03-14T11:16:48.877Z,13.17
2023-03-14T11:19:37.599Z,13.19
2023-03-14T11:22:16.188Z,13.24
2023-03-14T11:24:53.273Z,13.15
2023-03-14T11:27:24.850Z,13.07
2023-03-14T11:29:57.282Z,13.13
2023-03-14T11:32:45.118Z,13.05
2023-03-14T11:35:19.925Z,13.10
2023-03-14T11:37:56.069Z,13.03
2023-03-14T11:40:28.410Z,13.03
2023-03-14T11:43:03.025Z,13.06
2023-03-14T11:45:37.036Z,13.07
2023-03-14T11:48:30.626Z,13.06
2023-03-14T11:51:01.529Z,12.97
2023-03-14T11:53:45.385Z,12.84
2023-03-14T11:56:17.653Z,12.78
2023-03-14T11:58:58.039Z,12.76
2023-03-14T12:01:34.047Z,12.72
2023-03-14T12:04:12.101Z,12.71
2023-03-14T12:06:47.011Z,12.72
2023-03-14T12:09:18.705Z,12.69
2023-03-14T12:11:51.682Z,12.60
2023-03-14T12:14:23.106Z,12.65
2023-03-14T12:16:58.173Z,12.51
2023-03-14T12:19:39.036Z,12.60
2023-03-14T12:22:25.658Z,12.71
2023-03-14T12:24:57.759Z,12.81
2023-03-14T12:27:50.499Z,12.90
2023-03-14T12:30:31.072Z,12.91
2023-03-14T12:33:31.550Z,12.92
2023-03-14T12:36:14.978Z,12.75
2023-03-14T12:39:02.670Z,12.74
2023-03-14T12:41:38.157Z,12.75
2023-03-14T12:44:43.419Z,12.90
2023-03-14T12:48:02.162Z,12.52
2023-03-14T12:50:43.777Z,12.45
2023-03-14T12:53:54.276Z,12.60
2023-03-14T12:56:29.955Z,12.63
2023-03-14T12:59:48.670Z,12.67
2023-03-14T13:02:23.536Z,12.67
2023-03-14T13:04:54.289Z,12.75
2023-03-14T13:07:35.601Z,12.61
2023-03-14T13:10:23.145Z,12.57
2023-03-14T13:12:56.157Z,12.55
2023-03-14T13:15:29.232Z,12.43
2023-03-14T13:18:03.322Z,12.17
2023-03-14T13:20:34.652Z,11.38
2023-03-14T13:23:03.128Z,11.20
2023-03-14T13:25:38.387Z,10.97
2023-03-14T13:28:06.410Z,10.93
2023-03-14T13:30:45.359Z,10.89
2023-03-14T13:33:16.644Z,10.82
2023-03-14T13:35:47.417Z,10.94
2023-03-14T13:38:19.542Z,11.02
2023-03-14T13:40:50.715Z,11.48
2023-03-14T13:43:21.963Z,12.17
2023-03-14T13:45:56.093Z,12.45
2023-03-14T13:48:27.474Z,12.68
2023-03-14T13:50:58.169Z,12.92
2023-03-14T13:53:26.896Z,13.23
2023-03-14T13:56:03.159Z,13.44
2023-03-14T13:58:33.206Z,14.07
2023-03-14T14:01:05.855Z,13.71
2023-03-14T14:03:37.886Z,13.79
2023-03-14T14:06:07.391Z,13.56
2023-03-14T14:08:37.925Z,13.49
2023-03-14T14:11:11.221Z,13.69
2023-03-14T14:13:39.233Z,13.75
2023-03-14T14:16:08.407Z,13.72
2023-03-14T14:18:37.361Z,13.63
2023-03-14T14:21:06.308Z,13.72
2023-03-14T14:23:34.609Z,13.95
2023-03-14T14:26:02.587Z,14.17
2023-03-14T14:28:33.834Z,14.07
2023-03-14T14:31:08.050Z,14.19
2023-03-14T14:33:44.178Z,14.17
2023-03-14T14:36:20.391Z,14.11
2023-03-14T14:38:53.097Z,13.91
2023-03-14T14:41:21.853Z,13.76
2023-03-14T14:43:53.941Z,13.69
2023-03-14T14:46:22.260Z,13.84
2023-03-14T14:48:52.590Z,13.81
2023-03-14T14:51:32.771Z,13.72
2023-03-14T14:54:06.668Z,13.64
2023-03-14T15:00:08.257Z,13.63
2023-03-14T15:02:41.048Z,13.45
2023-03-14T15:05:15.078Z,13.38
2023-03-14T15:07:43.097Z,13.24
2023-03-14T15:10:13.582Z,13.19
2023-03-14T15:12:42.088Z,13.05
2023-03-14T15:15:12.926Z,12.90
2023-03-14T15:17:41.274Z,12.96
2023-03-14T15:20:14.552Z,12.91
2023-03-14T15:22:42.815Z,12.88
2023-03-14T15:25:31.569Z,12.88
2023-03-14T15:28:00.584Z,8.61
2023-03-14T15:30:29.900Z,7.56
2023-03-14T15:32:57.910Z,6.82
2023-03-14T15:35:25.856Z,6.55
2023-03-14T15:37:55.532Z,6.45
2023-03-14T15:40:28.278Z,6.35
2023-03-14T15:42:58.204Z,6.21
2023-03-14T15:45:26.457Z,5.85
2023-03-14T15:47:56.003Z,5.78
2023-03-14T15:50:24.176Z,5.59
2023-03-14T15:52:56.605Z,5.47
2023-03-14T15:55:24.643Z,5.13
2023-03-14T15:57:52.852Z,4.48
2023-03-14T16:00:23.416Z,3.82
2023-03-14T16:02:51.416Z,3.09
2023-03-14T16:05:39.483Z,2.73
2023-03-14T16:08:09.920Z,2.81
2023-03-14T16:10:39.534Z,2.42
2023-03-14T16:13:07.611Z,2.66
2023-03-14T16:15:38.479Z,2.45
2023-03-14T16:18:21.106Z,2.20
2023-03-14T16:20:56.112Z,1.81
2023-03-14T16:23:24.137Z,1.54
2023-03-14T16:25:54.892Z,1.60
2023-03-14T16:28:23.461Z,1.60
2023-03-14T16:30:51.482Z,1.58
2023-03-14T16:33:19.966Z,1.54
2023-03-14T16:36:01.139Z,1.57
2023-03-14T16:38:33.809Z,1.61
2023-03-14T16:41:04.566Z,1.63
2023-03-14T16:43:33.957Z,1.38
2023-03-14T16:46:02.498Z,1.11
2023-03-14T16:48:30.990Z,1.14
2023-03-14T16:51:00.632Z,1.26
2023-03-14T16:53:30.226Z,1.29
2023-03-14T16:55:59.608Z,1.40
2023-03-14T16:58:30.239Z,1.45
2023-03-14T17:00:58.839Z,1.44
2023-03-14T17:03:27.781Z,1.60
2023-03-14T17:05:55.911Z,1.60
2023-03-14T17:08:25.215Z,1.52
2023-03-14T17:10:53.207Z,1.49
2023-03-14T17:13:25.532Z,1.52
2023-03-14T17:15:55.227Z,1.58
2023-03-14T17:18:23.612Z,1.40
2023-03-14T17:20:52.173Z,1.48
2023-03-14T17:23:20.573Z,1.53
2023-03-14T17:25:51.485Z,1.54
2023-03-14T17:28:20.162Z,1.57
2023-03-14T17:30:48.122Z,1.49
2023-03-14T17:33:16.739Z,1.60
2023-03-14T17:35:45.207Z,1.71
2023-03-14T17:38:13.340Z,1.72
2023-03-14T17:40:41.313Z,1.71
2023-03-14T17:43:10.581Z,1.67
2023-03-14T17:45:38.503Z,1.64
2023-03-14T17:48:06.916Z,1.68
2023-03-14T17:50:34.831Z,1.78
2023-03-14T17:53:03.021Z,1.70
2023-03-14T17:55:31.737Z,1.68
2023-03-14T17:57:59.659Z,1.82
2023-03-14T18:00:30.179Z,1.88
2023-03-14T18:02:59.311Z,1.89
2023-03-14T18:05:29.507Z,1.98
2023-03-14T18:07:58.057Z,2.07
2023-03-14T18:10:26.250Z,2.12
2023-03-14T18:12:54.396Z,2.18
2023-03-14T18:15:22.446Z,2.23
2023-03-14T18:17:51.812Z,2.24
2023-03-14T18:20:19.827Z,2.17
2023-03-14T18:22:47.850Z,2.09
2023-03-14T18:25:15.754Z,2.12
2023-03-14T18:27:43.709Z,2.34
2023-03-14T18:30:12.842Z,2.41
2023-03-14T18:32:40.850Z,2.34
2023-03-14T18:35:10.478Z,2.51
2023-03-14T18:37:39.511Z,2.44
2023-03-14T18:40:10.334Z,2.59
2023-03-14T18:42:38.297Z,2.66
2023-03-14T18:45:07.272Z,2.63
2023-03-14T18:47:36.616Z,2.67
2023-03-14T18:50:05.330Z,2.73
2023-03-14T18:52:35.968Z,2.71
2023-03-14T18:55:04.058Z,2.75
2023-03-14T18:57:32.223Z,2.74
2023-03-14T19:00:00.200Z,2.77
2023-03-14T19:02:28.337Z,2.83
2023-03-14T19:04:56.545Z,2.79
2023-03-14T19:07:24.495Z,2.84
2023-03-14T19:09:53.738Z,2.80
2023-03-14T19:12:21.713Z,2.81
2023-03-14T19:14:51.452Z,2.93
2023-03-14T19:17:20.015Z,2.93
2023-03-14T19:19:47.956Z,2.92
2023-03-14T19:22:15.865Z,2.98
2023-03-14T19:24:43.768Z,3.02
2023-03-14T19:27:13.145Z,3.12
2023-03-14T19:29:42.277Z,3.14
2023-03-14T19:32:12.838Z,3.18
2023-03-14T19:34:44.185Z,3.16
2023-03-14T19:37:12.284Z,3.23
2023-03-14T19:39:40.302Z,3.13
2023-03-14T19:42:08.493Z,3.11
2023-03-14T19:44:37.943Z,3.18
2023-03-14T19:47:06.637Z,3.19
2023-03-14T19:49:34.632Z,3.20
2023-03-14T19:52:02.634Z,3.18
2023-03-14T19:54:31.550Z,3.23
2023-03-14T19:57:03.894Z,3.16
2023-03-14T19:59:33.978Z,3.24
2023-03-14T20:02:03.293Z,3.21
2023-03-14T20:04:31.372Z,3.22
2023-03-14T20:06:59.316Z,3.19
2023-03-14T20:09:27.705Z,3.24
2023-03-14T20:11:55.780Z,3.23
2023-03-14T20:14:24.266Z,3.22
2023-03-14T20:16:52.361Z,3.21
2023-03-14T20:19:22.240Z,3.28
2023-03-14T20:21:51.114Z,3.21
2023-03-14T20:24:19.430Z,3.18
2023-03-14T20:26:47.599Z,3.18
2023-03-14T20:29:15.605Z,3.10
2023-03-14T20:31:43.955Z,3.20
2023-03-14T20:34:11.880Z,3.13
2023-03-14T20:36:41.185Z,3.13
2023-03-14T20:39:09.268Z,3.06
2023-03-14T20:41:41.977Z,3.12
2023-03-14T20:44:11.338Z,3.10
2023-03-14T20:46:40.600Z,3.06
2023-03-14T20:49:08.753Z,3.02
2023-03-14T20:51:36.914Z,3.09
2023-03-14T20:54:08.854Z,3.15
2023-03-14T20:56:36.909Z,3.12
2023-03-14T20:59:04.929Z,3.08
2023-03-14T21:01:33.152Z,3.07
2023-03-14T21:04:01.256Z,3.08
2023-03-14T21:06:29.329Z,3.08
2023-03-14T21:08:57.400Z,3.09
2023-03-14T21:11:26.825Z,3.05
2023-03-14T21:13:54.943Z,3.05
2023-03-14T21:16:23.068Z,3.07
2023-03-14T21:18:51.042Z,3.06
2023-03-14T21:21:19.081Z,3.04
2023-03-14T21:24:15.383Z,3.10
2023-03-14T21:26:47.393Z,3.12
2023-03-14T21:29:15.499Z,3.12
2023-03-14T21:31:43.489Z,3.12
2023-03-14T21:34:12.713Z,3.11
2023-03-14T21:36:40.897Z,3.13
2023-03-14T21:39:12.322Z,3.16
2023-03-14T21:41:40.287Z,3.13
2023-03-14T21:44:09.721Z,3.10
2023-03-14T21:46:37.731Z,3.10
2023-03-14T21:49:05.700Z,3.06
2023-03-14T21:51:35.739Z,3.00
2023-03-14T21:54:09.920Z,2.99
2023-03-14T21:56:38.135Z,3.11
2023-03-14T21:59:10.575Z,3.05
2023-03-14T22:01:39.227Z,2.88
2023-03-14T22:04:07.341Z,2.90
2023-03-14T22:06:35.955Z,2.88
2023-03-14T22:09:04.236Z,2.82
2023-03-14T22:11:32.205Z,2.81
2023-03-14T22:14:00.254Z,2.83
2023-03-14T22:16:29.567Z,2.67
2023-03-14T22:18:57.537Z,2.77
2023-03-14T22:21:25.476Z,2.65
2023-03-14T22:23:53.393Z,2.60
2023-03-14T22:26:21.575Z,2.72
2023-03-14T22:28:49.503Z,2.60
2023-03-14T22:31:17.590Z,2.67
2023-03-14T22:33:46.896Z,2.65
2023-03-14T22:36:14.922Z,2.68
2023-03-14T22:38:42.953Z,2.72
2023-03-14T22:41:10.904Z,2.61
2023-03-14T22:43:38.776Z,2.63
2023-03-14T22:46:08.034Z,2.60
2023-03-14T22:48:36.325Z,2.66
2023-03-14T22:51:09.751Z,2.71
2023-03-14T22:53:38.498Z,2.70
2023-03-14T22:56:08.164Z,2.59
2023-03-14T22:58:36.354Z,2.65
2023-03-14T23:01:05.185Z,2.64
2023-03-14T23:03:33.347Z,2.66
2023-03-14T23:06:01.255Z,2.71
2023-03-14T23:08:33.030Z,2.67
2023-03-14T23:11:02.439Z,2.62
2023-03-14T23:13:31.280Z,2.65
2023-03-14T23:15:59.693Z,2.51
2023-03-14T23:18:28.086Z,2.61
2023-03-14T23:21:06.667Z,2.63
2023-03-14T23:23:35.904Z,2.66
2023-03-14T23:26:04.131Z,2.58
2023-03-14T23:28:32.183Z,2.42
2023-03-14T23:31:01.184Z,2.48
2023-03-14T23:33:33.156Z,2.32
2023-03-14T23:36:03.854Z,2.21
2023-03-14T23:38:33.249Z,2.47
2023-03-14T23:41:03.238Z,2.42
2023-03-14T23:43:32.492Z,2.39
2023-03-14T23:46:00.525Z,2.40
2023-03-14T23:48:33.666Z,2.44
2023-03-14T23:51:03.294Z,2.43
2023-03-14T23:53:33.991Z,2.22
2023-03-14T23:56:03.930Z,2.26
2023-03-14T23:58:35.636Z,2.16
